This is the latest recevied weather packets stored in our database for station/object KM4KMS. If no packets are shown the sender has not sent any weather packets the latest 10 day(s).
| Time | Temp. | Humidity | Pressure | Rain* | Wind** | Luminosity | Snow |
|---|---|---|---|---|---|---|---|
| 1777623636 | 7.78° C | 80% | 1013.2 hPa | 0 mm | - | 0 W/m² | - |
| 1777623334 | 7.78° C | 79% | 1013.1 hPa | 0 mm | - | 0 W/m² | - |
| 1777623030 | 7.78° C | 78% | 1013.5 hPa | 0 mm | - | 0 W/m² | - |
| 1777622727 | 6.67° C | 81% | 1013.5 hPa | 0 mm | - | 0 W/m² | - |
| 1777622424 | 6.67° C | 82% | 1013.4 hPa | 0 mm | - | 0 W/m² | - |
| 1777622121 | 6.67° C | 82% | 1013.6 hPa | 0 mm | - | 0 W/m² | - |
| 1777621816 | 6.67° C | 83% | 1013.2 hPa | 0 mm | - | 0 W/m² | - |
| 1777621513 | 6.11° C | 87% | 1013.5 hPa | 0 mm | - | 0 W/m² | - |
| 1777621209 | 5.56° C | 90% | 1013.3 hPa | 0 mm | - | 0 W/m² | - |
| 1777620905 | 5.56° C | 91% | 1013.1 hPa | 0 mm | - | 0 W/m² | - |
| 1777620601 | 5.56° C | 90% | 1013.5 hPa | 0 mm | - | 0 W/m² | - |
| 1777620297 | 5.56° C | 90% | 1013.4 hPa | 0 mm | - | 0 W/m² | - |
| 1777619994 | 5.56° C | 91% | 1013.6 hPa | 0 mm | - | 0 W/m² | - |
| 1777619691 | 5.56° C | 91% | 1013.5 hPa | 0 mm | - | 0 W/m² | - |
| 1777619385 | 5.56° C | 92% | 1013.8 hPa | 0 mm | - | 0 W/m² | - |
| 1777619085 | 5.56° C | 91% | 1013.7 hPa | 0 mm | - | 0 W/m² | - |
| 1777618779 | 5.56° C | 90% | 1013.9 hPa | 0 mm | - | 0 W/m² | - |
| 1777618475 | 6.11° C | 88% | 1013.8 hPa | 0 mm | - | 0 W/m² | - |
| 1777618172 | 6.11° C | 88% | 1014 hPa | 0 mm | - | 0 W/m² | - |
| 1777617869 | 6.11° C | 87% | 1013.7 hPa | 0 mm | - | 0 W/m² | - |
| 1777617569 | 5.56° C | 90% | 1014 hPa | 0 mm | - | 0 W/m² | - |
| 1777617266 | 6.11° C | 88% | 1014 hPa | 0 mm | - | 0 W/m² | - |
| 1777616963 | 7.22° C | 83% | 1014.1 hPa | 0 mm | - | 0 W/m² | - |
| 1777616658 | 7.22° C | 83% | 1013.8 hPa | 0 mm | - | 0 W/m² | - |
| 1777616353 | 7.22° C | 81% | 1014 hPa | 0 mm | - | 0 W/m² | - |
* Rain latest hour (hover to see other rain measurements)
** Current wind speed in m/s (hover to see current wind gust speed)